Miyakonojo, Japan

11:53 AM JST on July 27, 2016 (GMT +0900)
Kagoshima | | Change Station

Elev 902 ft 31.80 °N, 130.72 °E | Updated 53 minutes ago

Partly Cloudy
Partly Cloudy
84 °F
Feels Like 87 °F
N
4
Wind Variable Wind from SSW

Today
High -- | Low -- °F
--% Chance of Precip.
Yesterday
High -- | Low -- °F
Precip. -- in
Pressure 29.83 in
Visibility 6.2 miles
Clouds Few 2500 ft
Heat Index 87 °F
Dew Point 66 °F
Humidity 55%
Rainfall 0.00 in
Snow Depth Not available.
5:28 AM 7:15 PM
Waning Gibbous, 48% visible
METAR RJFK 270200Z 20003KT 160V270 9999 FEW025 SCT/// 29/19 Q1010 RMK 1CU025 A2984
Pressure 29.83 in
Visibility 6.2 miles
Clouds Few 2500 ft
Heat Index 87 °F
Dew Point 66 °F
Humidity 55%
Rainfall 0.00 in
Snow Depth Not available.
5:28 AM 7:15 PM
Waning Gibbous, 48% visible
METAR RJFK 270200Z 20003KT 160V270 9999 FEW025 SCT/// 29/19 Q1010 RMK 1CU025 A2984

10-Day Weather Forecast

No radar image for this location.
×

Almanac

Astronomy

Jul. 27, 2016 Rise Set
Actual Time
Civil Twilight
Nautical Twilight
Astronomical Twilight
Moon
Length of Visible Light
Length of Day
Tomorrow will be .
, % of the Moon is Illuminated

Today's Extremes

Country Highs Country Lows

Community

WunderPhotos

Upload Photos

1,927,784 photos uploaded!

WunderBlog® & News

Nearby

Air Quality

  Air Quality AQ Index Pollutant
Not available.

Snow Depth

Station Depth Elevation

Earthquake Activity

City Distance Mag. Time & Date
Minimum magnitude displayed is 2.5.

Coastal Water Temperatures

Place Temperature

Stations

Nearby Weather Stations

Station Location Temp. Windchill Dew Point Humidity Wind Precip. Elev Updated Type